createdAt,value
2022-09-04T00:01:04.896Z,101269.84
2022-09-04T00:03:36.512Z,101273.00
2022-09-04T00:06:08.359Z,101273.00
2022-09-04T00:08:39.887Z,101272.75
2022-09-04T00:11:12.121Z,101272.66
2022-09-04T00:13:43.806Z,101272.44
2022-09-04T00:16:15.693Z,101271.03
2022-09-04T00:18:47.235Z,101272.78
2022-09-04T00:21:21.789Z,101266.22
2022-09-04T00:23:53.326Z,101267.84
2022-09-04T00:26:25.193Z,101263.53
2022-09-04T00:28:56.710Z,101267.84
2022-09-04T00:31:29.311Z,101268.34
2022-09-04T00:34:01.211Z,101269.41
2022-09-04T00:36:32.750Z,101269.88
2022-09-04T00:39:04.670Z,101273.28
2022-09-04T00:41:36.198Z,101275.16
2022-09-04T00:44:08.259Z,101281.34
2022-09-04T00:46:39.767Z,101275.63
2022-09-04T00:49:11.988Z,101286.38
2022-09-04T00:51:43.520Z,101288.59
2022-09-04T00:54:15.368Z,101293.38
2022-09-04T00:56:46.900Z,101292.81
2022-09-04T00:59:18.449Z,101304.03
2022-09-04T01:01:51.818Z,101291.41
2022-09-04T01:04:24.889Z,101301.81
2022-09-04T01:06:56.415Z,101303.69
2022-09-04T01:09:31.387Z,101294.94
2022-09-04T01:12:02.903Z,101306.03
2022-09-04T01:14:38.880Z,101300.66
2022-09-04T01:17:10.402Z,101305.69
2022-09-04T01:19:42.380Z,101309.44
2022-09-04T01:22:13.895Z,101307.19
2022-09-04T01:24:45.857Z,101311.16
2022-09-04T01:27:17.914Z,101308.13
2022-09-04T01:29:50.217Z,101313.50
2022-09-04T01:32:21.721Z,101307.56
2022-09-04T01:34:53.558Z,101309.31
2022-09-04T01:37:25.089Z,101305.22
2022-09-04T01:39:57.279Z,101312.72
2022-09-04T01:42:28.828Z,101314.22
2022-09-04T01:45:00.864Z,101313.41
2022-09-04T01:47:32.384Z,101306.19
2022-09-04T01:50:04.726Z,101319.84
2022-09-04T01:52:36.726Z,101310.84
2022-09-04T01:55:08.762Z,101311.09
2022-09-04T01:57:40.294Z,101315.06
2022-09-04T02:00:11.972Z,101319.22
2022-09-04T02:02:44.123Z,101309.19
2022-09-04T02:05:18.082Z,101310.03
2022-09-04T02:07:49.598Z,101307.81
2022-09-04T02:10:21.459Z,101310.94
2022-09-04T02:12:52.977Z,101313.28
2022-09-04T02:15:26.604Z,101314.34
2022-09-04T02:17:58.121Z,101307.34
2022-09-04T02:20:30.131Z,101315.84
2022-09-04T02:23:01.734Z,101314.44
2022-09-04T02:25:33.687Z,101315.97
2022-09-04T02:28:05.197Z,101306.06
2022-09-04T02:30:37.168Z,101312.69
2022-09-04T02:33:08.736Z,101316.56
2022-09-04T02:35:40.673Z,101315.63
2022-09-04T02:38:12.191Z,101310.25
2022-09-04T02:40:44.289Z,101309.91
2022-09-04T02:43:16.375Z,101311.06
2022-09-04T02:45:48.209Z,101314.56
2022-09-04T02:48:19.765Z,101325.41
2022-09-04T02:50:51.922Z,101312.00
2022-09-04T02:53:23.432Z,101318.31
2022-09-04T02:55:55.204Z,101327.28
2022-09-04T02:58:27.108Z,101320.63
2022-09-04T03:00:58.737Z,101325.19
2022-09-04T03:03:30.666Z,101324.25
2022-09-04T03:06:02.185Z,101321.91
2022-09-04T03:08:34.414Z,101324.25
2022-09-04T03:11:08.783Z,101322.16
2022-09-04T03:13:40.703Z,101323.56
2022-09-04T03:16:12.249Z,101320.75
2022-09-04T03:18:44.077Z,101316.66
2022-09-04T03:21:16.528Z,101314.81
2022-09-04T03:23:48.558Z,101317.72
2022-09-04T03:26:20.162Z,101321.00
2022-09-04T03:28:52.031Z,101320.63
2022-09-04T03:31:23.689Z,101325.19
2022-09-04T03:33:55.275Z,101323.31
2022-09-04T03:36:26.777Z,101319.94
2022-09-04T03:39:02.903Z,101324.50
2022-09-04T03:41:34.440Z,101326.59
2022-09-04T03:44:06.405Z,101333.25
2022-09-04T03:46:38.011Z,101326.81
2022-09-04T03:49:09.662Z,101329.72
2022-09-04T03:51:41.172Z,101330.78
2022-09-04T03:54:13.143Z,101323.19
2022-09-04T03:56:44.687Z,101332.66
2022-09-04T03:59:16.322Z,101335.81
2022-09-04T04:01:47.875Z,101333.13
2022-09-04T04:04:20.175Z,101339.19
2022-09-04T04:06:52.869Z,101347.00
2022-09-04T04:09:24.409Z,101356.44
2022-09-04T04:11:55.947Z,101349.16
2022-09-04T04:14:27.932Z,101351.78
2022-09-04T04:17:00.138Z,101348.59
2022-09-04T04:19:33.711Z,101349.16
2022-09-04T04:22:05.251Z,101352.50
2022-09-04T04:24:39.562Z,101352.63
2022-09-04T04:27:11.086Z,101354.34
2022-09-04T04:29:43.103Z,101355.41
2022-09-04T04:32:14.658Z,101356.44
2022-09-04T04:34:46.692Z,101360.41
2022-09-04T04:37:18.201Z,101359.59
2022-09-04T04:39:50.212Z,101361.91
2022-09-04T04:42:22.190Z,101361.91
2022-09-04T04:45:12.197Z,101374.78
2022-09-04T04:47:45.284Z,101375.19
2022-09-04T04:50:16.831Z,101375.84
2022-09-04T04:52:50.090Z,101378.75
2022-09-04T04:55:22.094Z,101375.03
2022-09-04T04:57:53.944Z,101378.47
2022-09-04T05:00:27.632Z,101376.38
2022-09-04T05:03:01.035Z,101371.63
2022-09-04T05:05:33.726Z,101385.75
2022-09-04T05:08:08.399Z,101387.38
2022-09-04T05:10:40.247Z,101399.16
2022-09-04T05:13:12.339Z,101406.53
2022-09-04T05:15:58.462Z,101407.97
2022-09-04T05:18:35.681Z,101410.78
2022-09-04T05:21:07.190Z,101423.28
2022-09-04T05:23:39.264Z,101426.91
2022-09-04T05:26:10.764Z,101422.72
2022-09-04T05:28:42.289Z,101427.72
2022-09-04T05:31:14.106Z,101430.94
2022-09-04T05:33:45.988Z,101437.63
2022-09-04T05:36:17.588Z,101452.59
2022-09-04T05:38:49.430Z,101453.41
2022-09-04T05:41:20.951Z,101452.03
2022-09-04T05:43:52.744Z,101455.41
2022-09-04T05:46:24.336Z,101459.03
2022-09-04T05:48:56.253Z,101465.44
2022-09-04T05:51:27.753Z,101461.03
2022-09-04T05:54:01.119Z,101467.47
2022-09-04T05:56:32.711Z,101474.41
2022-09-04T05:59:04.622Z,101473.47
2022-09-04T06:01:36.350Z,101474.41
2022-09-04T06:04:08.349Z,101477.44
2022-09-04T06:06:40.661Z,101478.72
2022-09-04T06:09:12.544Z,101481.53
2022-09-04T06:11:44.139Z,101489.53
2022-09-04T06:14:15.977Z,101496.00
2022-09-04T06:16:47.567Z,101496.81
2022-09-04T06:19:19.617Z,101500.41
2022-09-04T06:21:51.154Z,101497.25
2022-09-04T06:24:22.673Z,101496.34
2022-09-04T06:26:54.171Z,101491.75
2022-09-04T06:29:25.687Z,101490.66
2022-09-04T06:31:57.680Z,101489.06
2022-09-04T06:34:29.221Z,101488.44
2022-09-04T06:37:01.080Z,101489.91
2022-09-04T06:39:32.636Z,101485.78
2022-09-04T06:42:04.582Z,101487.75
2022-09-04T06:44:36.072Z,101494.34
2022-09-04T06:47:08.020Z,101501.44
2022-09-04T06:49:39.519Z,101493.28
2022-09-04T06:52:11.145Z,101496.03
2022-09-04T06:54:42.689Z,101504.28
2022-09-04T06:57:14.545Z,101506.69
2022-09-04T06:59:46.139Z,101508.09
2022-09-04T07:02:18.209Z,101503.75
2022-09-04T07:04:49.754Z,101512.09
2022-09-04T07:07:21.435Z,101513.22
2022-09-04T07:09:53.531Z,101509.00
2022-09-04T07:12:25.560Z,101524.03
2022-09-04T07:14:57.134Z,101518.78
2022-09-04T07:17:28.677Z,101516.41
2022-09-04T07:20:00.174Z,101511.84
2022-09-04T07:22:31.696Z,101512.50
2022-09-04T07:25:03.224Z,101517.88
2022-09-04T07:27:36.180Z,101505.63
2022-09-04T07:30:08.056Z,101515.13
2022-09-04T07:32:39.873Z,101510.50
2022-09-04T07:35:11.391Z,101523.81
2022-09-04T07:37:44.284Z,101515.56
2022-09-04T07:40:15.864Z,101521.88
2022-09-04T07:42:48.628Z,101521.59
2022-09-04T07:45:22.454Z,101526.53
2022-09-04T07:47:55.515Z,101516.22
2022-09-04T07:50:27.064Z,101521.53
2022-09-04T07:53:02.668Z,101524.03
2022-09-04T07:55:35.307Z,101534.69
2022-09-04T07:58:07.863Z,101530.94
2022-09-04T08:00:39.710Z,101537.78
2022-09-04T08:03:12.415Z,101544.94
2022-09-04T08:05:43.963Z,101544.03
2022-09-04T08:08:15.929Z,101552.31
2022-09-04T08:10:47.770Z,101559.41
2022-09-04T08:13:19.325Z,101554.91
2022-09-04T08:15:51.268Z,101559.44
2022-09-04T08:18:22.812Z,101556.25
2022-09-04T08:20:54.714Z,101555.69
2022-09-04T08:23:26.213Z,101568.16
2022-09-04T08:25:58.239Z,101574.69
2022-09-04T08:28:33.421Z,101561.13
2022-09-04T08:31:06.198Z,101556.22
2022-09-04T08:33:37.786Z,101554.06
2022-09-04T08:36:10.640Z,101554.59
2022-09-04T08:38:42.141Z,101563.31
2022-09-04T08:41:13.952Z,101563.22
2022-09-04T08:43:45.472Z,101565.94
2022-09-04T08:46:17.377Z,101559.72
2022-09-04T08:48:48.965Z,101555.78
2022-09-04T08:51:21.747Z,101555.13
2022-09-04T08:53:53.296Z,101554.66
2022-09-04T08:56:25.052Z,101557.13
2022-09-04T08:58:56.569Z,101542.56
2022-09-04T09:01:28.552Z,101553.63
2022-09-04T09:04:00.119Z,101554.25
2022-09-04T09:06:32.426Z,101555.19
2022-09-04T09:09:03.962Z,101556.59
2022-09-04T09:11:35.877Z,101555.53
2022-09-04T09:14:07.375Z,101556.41
2022-09-04T09:16:40.243Z,101553.34
2022-09-04T09:19:12.031Z,101544.34
2022-09-04T09:21:45.240Z,101556.56
2022-09-04T09:24:16.754Z,101549.53
2022-09-04T09:26:48.671Z,101550.63
2022-09-04T09:29:20.212Z,101552.63
2022-09-04T09:31:52.035Z,101557.09
2022-09-04T09:34:23.888Z,101547.91
2022-09-04T09:36:59.059Z,101550.91
2022-09-04T09:39:30.606Z,101388.59
2022-09-04T09:42:02.464Z,101552.75
2022-09-04T09:44:33.973Z,101544.78
2022-09-04T09:49:37.541Z,101553.28
2022-09-04T09:52:10.147Z,101556.38
2022-09-04T09:54:41.648Z,101550.03
2022-09-04T09:57:13.596Z,101544.75
2022-09-04T09:59:45.132Z,101532.09
2022-09-04T10:02:17.020Z,101536.28
2022-09-04T10:04:48.575Z,101532.72
2022-09-04T10:07:21.561Z,101539.81
2022-09-04T10:09:53.067Z,101541.84
2022-09-04T10:12:24.947Z,101527.56
2022-09-04T10:14:56.444Z,101529.09
2022-09-04T10:17:28.266Z,101543.06
2022-09-04T10:20:00.264Z,101527.69
2022-09-04T10:22:32.148Z,101527.78
2022-09-04T10:25:03.656Z,101523.81
2022-09-04T10:27:35.474Z,101537.59
2022-09-04T10:30:07.009Z,101536.59
2022-09-04T10:32:38.812Z,101541.13
2022-09-04T10:35:10.789Z,101540.53
2022-09-04T10:37:42.629Z,101543.97
2022-09-04T10:40:33.426Z,101548.41
2022-09-04T10:43:09.760Z,101539.03
2022-09-04T10:45:41.766Z,101535.75
2022-09-04T10:48:13.306Z,101545.94
2022-09-04T10:50:46.582Z,101540.53
2022-09-04T10:53:20.672Z,101541.03
2022-09-04T10:55:54.556Z,101537.47
2022-09-04T10:58:27.691Z,101549.84
2022-09-04T11:01:03.648Z,101539.78
2022-09-04T11:03:35.309Z,101538.34
2022-09-04T11:06:11.327Z,101534.28
2022-09-04T11:08:42.841Z,101548.34
2022-09-04T11:11:14.691Z,101540.06
2022-09-04T11:13:51.082Z,101551.81
2022-09-04T11:16:23.181Z,101544.47
2022-09-04T11:18:54.758Z,101542.81
2022-09-04T11:21:27.586Z,101498.78
2022-09-04T11:23:59.126Z,101530.78
2022-09-04T11:26:31.160Z,101536.16
2022-09-04T11:29:02.681Z,101538.22
2022-09-04T11:31:34.545Z,101541.84
2022-09-04T11:34:06.111Z,101534.44
2022-09-04T11:36:40.496Z,101537.50
2022-09-04T11:39:12.041Z,101533.38
2022-09-04T11:41:43.945Z,101528.28
2022-09-04T11:44:15.799Z,101523.06
2022-09-04T11:46:47.464Z,101525.75
2022-09-04T11:49:20.508Z,101512.94
2022-09-04T11:51:52.125Z,101514.84
2022-09-04T11:54:24.505Z,101520.59
2022-09-04T11:56:56.027Z,101520.28
2022-09-04T11:59:28.020Z,101518.66
2022-09-04T12:01:59.630Z,101510.25
2022-09-04T12:04:32.084Z,101500.44
2022-09-04T12:07:05.727Z,101507.22
2022-09-04T12:09:37.613Z,101510.94
2022-09-04T12:12:11.394Z,101512.50
2022-09-04T12:14:43.488Z,101507.00
2022-09-04T12:17:15.638Z,101494.00
2022-09-04T12:19:47.539Z,101497.81
2022-09-04T12:22:19.082Z,101503.78
2022-09-04T12:24:50.946Z,101487.16
2022-09-04T12:27:22.506Z,101494.00
2022-09-04T12:29:54.427Z,101493.78
2022-09-04T12:32:25.945Z,101507.59
2022-09-04T12:34:57.800Z,101510.25
2022-09-04T12:37:29.553Z,101503.38
2022-09-04T12:40:01.477Z,101502.19
2022-09-04T12:42:35.448Z,101500.16
2022-09-04T12:45:07.397Z,101504.56
2022-09-04T12:47:41.608Z,101501.34
2022-09-04T12:50:16.338Z,101492.00
2022-09-04T12:52:47.870Z,101498.63
2022-09-04T12:55:19.827Z,101504.47
2022-09-04T12:57:55.545Z,101500.69
2022-09-04T13:00:31.805Z,101506.19
2022-09-04T13:03:13.151Z,101506.09
2022-09-04T13:05:49.762Z,101500.13
2022-09-04T13:08:26.259Z,101500.56
2022-09-04T13:11:01.241Z,101499.03
2022-09-04T13:13:33.939Z,101502.06
2022-09-04T13:16:05.855Z,101503.94
2022-09-04T13:18:38.264Z,101505.88
2022-09-04T13:21:10.292Z,101505.72
2022-09-04T13:23:42.760Z,101510.44
2022-09-04T13:26:20.688Z,101512.41
2022-09-04T13:28:52.215Z,101511.25
2022-09-04T13:31:23.800Z,101517.75
2022-09-04T13:33:55.803Z,101510.94
2022-09-04T13:36:28.543Z,101506.88
2022-09-04T13:39:00.098Z,101509.78
2022-09-04T13:41:33.628Z,101502.38
2022-09-04T13:44:05.993Z,101509.91
2022-09-04T13:46:37.656Z,101522.78
2022-09-04T13:49:09.622Z,101518.97
2022-09-04T13:51:43.083Z,101521.09
2022-09-04T13:54:14.995Z,101513.69
2022-09-04T13:56:46.504Z,101523.97
2022-09-04T13:59:18.414Z,101523.06
2022-09-04T14:01:50.259Z,101518.69
2022-09-04T14:04:26.903Z,101524.06
2022-09-04T14:07:00.007Z,101524.94
2022-09-04T14:09:31.902Z,101491.63
2022-09-04T14:12:03.414Z,101506.13
2022-09-04T14:14:37.732Z,101525.22
2022-09-04T14:17:09.621Z,101521.84
2022-09-04T14:19:42.749Z,101519.66
2022-09-04T14:22:14.987Z,101518.09
2022-09-04T14:24:46.855Z,101522.78
2022-09-04T14:27:19.240Z,101519.16
2022-09-04T14:29:51.398Z,101515.50
2022-09-04T14:32:22.918Z,101517.78
2022-09-04T14:34:59.193Z,101519.06
2022-09-04T14:37:30.747Z,101524.25
2022-09-04T14:40:03.572Z,101524.22
2022-09-04T14:42:35.137Z,101527.50
2022-09-04T14:45:10.060Z,101529.34
2022-09-04T14:47:44.516Z,101524.81
2022-09-04T14:50:17.109Z,101522.94
2022-09-04T14:52:48.638Z,101529.88
2022-09-04T14:55:20.531Z,101527.69
2022-09-04T14:57:52.154Z,101533.09
2022-09-04T15:00:25.031Z,101527.63
2022-09-04T15:02:56.556Z,101530.00
2022-09-04T15:05:28.484Z,101528.25
2022-09-04T15:08:00.011Z,101526.03
2022-09-04T15:10:33.256Z,101519.72
2022-09-04T15:13:05.461Z,101514.97
2022-09-04T15:15:37.320Z,101522.72
2022-09-04T15:18:10.805Z,101524.81
2022-09-04T15:20:42.829Z,101523.41
2022-09-04T15:23:14.813Z,101516.06
2022-09-04T15:26:01.703Z,101524.38
2022-09-04T15:28:38.737Z,101525.16
2022-09-04T15:31:15.437Z,101518.97
2022-09-04T15:33:48.349Z,101522.19
2022-09-04T15:36:20.157Z,101521.03
2022-09-04T15:38:52.306Z,101522.09
2022-09-04T15:41:24.073Z,101526.25
2022-09-04T15:43:56.058Z,101522.84
2022-09-04T15:46:27.693Z,101528.63
2022-09-04T15:48:59.725Z,101534.84
2022-09-04T15:51:31.261Z,101534.88
2022-09-04T15:54:03.214Z,101537.59
2022-09-04T15:56:34.925Z,101533.09
2022-09-04T15:59:06.767Z,101541.88
2022-09-04T16:01:39.043Z,101540.63
2022-09-04T16:04:13.058Z,101542.13
2022-09-04T16:06:44.626Z,101548.75
2022-09-04T16:09:16.466Z,101555.59
2022-09-04T16:11:48.020Z,101541.78
2022-09-04T16:14:19.987Z,101543.41
2022-09-04T16:16:53.059Z,101542.97
2022-09-04T16:19:24.906Z,101544.97
2022-09-04T16:21:56.424Z,101544.94
2022-09-04T16:24:30.007Z,101559.84
2022-09-04T16:27:01.604Z,101557.25
2022-09-04T16:29:36.799Z,101557.66
2022-09-04T16:32:09.629Z,101557.66
2022-09-04T16:34:41.492Z,101560.00
2022-09-04T16:37:13.050Z,101555.25
2022-09-04T16:39:44.994Z,101554.56
2022-09-04T16:42:16.554Z,101568.75
2022-09-04T16:44:48.446Z,101573.72
2022-09-04T16:47:21.334Z,101576.03
2022-09-04T16:49:53.113Z,101474.31
2022-09-04T16:52:26.570Z,101577.47
2022-09-04T16:54:58.513Z,101578.84
2022-09-04T16:57:30.045Z,101582.16
2022-09-04T17:00:01.992Z,101578.41
2022-09-04T17:02:36.395Z,101583.88
2022-09-04T17:05:08.476Z,101594.81
2022-09-04T17:07:40.005Z,101594.06
2022-09-04T17:10:11.779Z,101596.56
2022-09-04T17:12:43.795Z,101597.72
2022-09-04T17:15:15.281Z,101597.72
2022-09-04T17:17:47.381Z,101596.41
2022-09-04T17:20:18.974Z,101597.50
2022-09-04T17:29:00.618Z,101598.88
2022-09-04T17:29:11.494Z,101604.38
2022-09-04T17:29:22.444Z,101597.91
2022-09-04T17:31:26.026Z,101602.25
2022-09-04T17:39:45.948Z,101606.09
2022-09-04T17:40:39.585Z,101599.34
2022-09-04T17:40:52.234Z,101608.31
2022-09-04T17:42:34.837Z,101612.66
2022-09-04T17:45:06.449Z,101624.06
2022-09-04T17:47:43.027Z,101621.38
2022-09-04T17:50:16.406Z,101628.38
2022-09-04T17:52:48.260Z,101628.94
2022-09-04T17:55:19.780Z,101632.47
2022-09-04T17:57:51.876Z,101638.41
2022-09-04T18:00:24.873Z,101644.59
2022-09-04T18:02:56.534Z,101644.56
2022-09-04T18:05:28.087Z,101648.34
2022-09-04T18:08:09.086Z,101647.00
2022-09-04T18:10:43.199Z,101644.25
2022-09-04T18:13:36.551Z,101651.56
2022-09-04T18:16:11.102Z,101656.09
2022-09-04T18:18:42.937Z,101654.19
2022-09-04T18:21:14.525Z,101659.06
2022-09-04T18:23:51.640Z,101665.53
2022-09-04T18:26:24.162Z,101663.31
2022-09-04T18:28:56.732Z,101665.19
2022-09-04T18:37:06.670Z,101663.25
2022-09-04T18:37:20.595Z,101669.13
2022-09-04T18:37:41.857Z,101677.50
2022-09-04T18:40:12.798Z,101673.66
2022-09-04T18:50:21.796Z,101671.16
2022-09-04T18:50:31.685Z,101685.94
2022-09-04T18:50:50.871Z,101680.84
2022-09-04T18:51:24.939Z,101690.50
2022-09-04T18:53:57.280Z,101692.59
2022-09-04T18:56:28.874Z,101700.69
2022-09-04T18:59:00.797Z,101703.34
2022-09-04T19:01:32.754Z,101703.06
2022-09-04T19:04:18.867Z,101703.53
2022-09-04T19:06:51.112Z,101707.81
2022-09-04T19:09:23.780Z,101707.47
2022-09-04T19:11:55.336Z,101708.56
2022-09-04T19:14:30.081Z,101706.28
2022-09-04T19:17:01.708Z,101708.41
2022-09-04T19:19:36.429Z,101703.53
2022-09-04T19:22:09.545Z,101704.34
2022-09-04T19:24:47.164Z,101699.97
2022-09-04T19:27:18.825Z,101702.31
2022-09-04T19:30:03.403Z,101708.81
2022-09-04T19:32:49.693Z,101706.56
2022-09-04T19:35:21.908Z,101711.34
2022-09-04T19:43:29.131Z,101710.28
2022-09-04T19:46:11.145Z,101714.00
2022-09-04T19:46:11.849Z,101710.72
2022-09-04T19:46:40.027Z,101709.59
2022-09-04T19:52:36.812Z,101708.22
2022-09-04T19:53:30.955Z,101706.75
2022-09-04T19:54:59.972Z,101708.00
2022-09-04T19:57:47.615Z,101706.63
2022-09-04T20:00:38.307Z,101711.72
2022-09-04T20:03:11.602Z,101714.34
2022-09-04T20:05:57.815Z,101717.31
2022-09-04T20:08:32.347Z,101710.44
2022-09-04T20:11:04.003Z,101717.75
2022-09-04T20:13:35.980Z,101717.03
2022-09-04T20:16:07.528Z,101722.94
2022-09-04T20:18:41.333Z,101713.78
2022-09-04T20:21:12.864Z,101718.03
2022-09-04T20:23:44.887Z,101725.00
2022-09-04T20:26:16.928Z,101722.81
2022-09-04T20:28:49.729Z,101724.13
2022-09-04T20:31:36.195Z,101729.44
2022-09-04T20:34:09.761Z,101720.47
2022-09-04T20:36:48.811Z,101731.81
2022-09-04T20:39:21.064Z,101731.00
2022-09-04T20:41:52.580Z,101741.47
2022-09-04T20:44:24.822Z,101734.13
2022-09-04T20:52:43.030Z,101733.56
2022-09-04T20:52:50.478Z,101742.38
2022-09-04T20:53:07.895Z,101737.69
2022-09-04T20:55:33.993Z,101737.38
2022-09-04T21:01:49.385Z,101744.66
2022-09-04T21:03:23.005Z,101751.38
2022-09-04T21:03:54.833Z,101747.75
2022-09-04T21:06:28.644Z,101748.00
2022-09-04T21:09:00.614Z,101759.03
2022-09-04T21:11:40.862Z,101756.25
2022-09-04T21:14:16.230Z,101766.72
2022-09-04T21:16:48.422Z,101764.84
2022-09-04T21:19:29.012Z,101769.91
2022-09-04T21:22:01.839Z,101772.84
2022-09-04T21:24:36.788Z,101778.50
2022-09-04T21:27:09.451Z,101771.66
2022-09-04T21:29:40.985Z,101784.91
2022-09-04T21:32:13.042Z,101789.75
2022-09-04T21:34:44.689Z,101788.00
2022-09-04T21:37:16.263Z,101785.78
2022-09-04T21:39:47.997Z,101782.28
2022-09-04T21:42:19.990Z,101781.94
2022-09-04T21:44:52.510Z,101788.84
2022-09-04T21:47:24.224Z,101781.25
2022-09-04T21:49:59.573Z,101786.06
2022-09-04T21:52:31.359Z,101788.44
2022-09-04T21:56:52.092Z,101778.13
2022-09-04T22:02:37.306Z,101783.63
2022-09-04T22:02:46.079Z,101783.75
2022-09-04T22:03:38.750Z,101781.91
2022-09-04T22:06:10.719Z,101787.38
2022-09-04T22:13:28.520Z,101787.03
2022-09-04T22:13:32.891Z,101792.66
2022-09-04T22:14:25.931Z,101789.97
2022-09-04T22:16:57.752Z,101796.44
2022-09-04T22:19:29.327Z,101800.66
2022-09-04T22:22:03.311Z,101798.44
2022-09-04T22:24:37.695Z,101796.56
2022-09-04T22:27:13.209Z,101796.81
2022-09-04T22:29:44.735Z,101801.84
2022-09-04T22:32:20.299Z,101804.78
2022-09-04T22:34:52.273Z,101800.47
2022-09-04T22:37:24.384Z,101802.00
2022-09-04T22:39:57.094Z,101801.06
2022-09-04T22:42:28.969Z,101804.69
2022-09-04T22:45:09.644Z,101805.41
2022-09-04T22:47:42.722Z,101804.81
2022-09-04T22:50:14.233Z,101803.66
2022-09-04T22:52:46.061Z,101802.84
2022-09-04T22:55:39.029Z,101804.13
2022-09-04T22:58:09.420Z,101805.06
2022-09-04T23:00:41.357Z,101806.34
2022-09-04T23:03:15.959Z,101804.13
2022-09-04T23:05:47.952Z,101800.50
2022-09-04T23:13:43.266Z,101803.06
2022-09-04T23:13:50.232Z,101801.91
2022-09-04T23:14:07.715Z,101803.84
2022-09-04T23:16:40.647Z,101805.38
2022-09-04T23:24:05.999Z,101807.47
2022-09-04T23:26:44.647Z,101801.50
2022-09-04T23:26:58.482Z,101807.84
2022-09-04T23:27:47.680Z,101815.78
2022-09-04T23:30:27.011Z,101807.59
2022-09-04T23:32:58.827Z,101806.16
2022-09-04T23:35:31.133Z,101810.59
2022-09-04T23:38:02.956Z,101808.38
2022-09-04T23:40:35.301Z,101805.31
2022-09-04T23:43:07.690Z,101812.44
2022-09-04T23:45:48.603Z,101811.28
2022-09-04T23:48:31.338Z,101812.78
2022-09-04T23:51:03.225Z,101806.00
2022-09-04T23:53:34.756Z,101809.97
2022-09-04T23:56:06.651Z,101816.63
2022-09-04T23:58:57.103Z,101814.75
